Time;durP1;ratioP1;P1;durP2;ratioP2;P2;SDS_P1;SDS_P2;PMS_P1;PMS_P2;Temp;Humidity;BMP_temperature;BMP_pressure;BME280_temperature;BME280_humidity;BME280_pressure;Samples;Min_cycle;Max_cycle;Signal;HPM_P1;HPM_P2
2023/04/29 00:00:29;;;;;;;2.57;2.37;;;;;;;;;;5066147;27;84000;-43
2023/04/29 00:02:59;;;;;;;4.87;2.80;;;;;;;;;;5066723;27;82091;-43
2023/04/29 00:05:28;;;;;;;4.37;2.20;;;;;;;;;;5067173;27;83906;-43
2023/04/29 00:07:56;;;;;;;2.17;1.80;;;;;;;;;;5065628;27;82974;-43
2023/04/29 00:10:25;;;;;;;2.47;2.20;;;;;;;;;;5064101;27;83914;-43
2023/04/29 00:12:53;;;;;;;3.33;2.60;;;;;;;;;;5062018;27;84487;-43
2023/04/29 00:15:21;;;;;;;3.07;2.10;;;;;;;;;;5062388;27;83607;-43
2023/04/29 00:17:49;;;;;;;3.30;2.43;;;;;;;;;;5066358;27;84132;-43
2023/04/29 00:20:19;;;;;;;3.73;2.30;;;;;;;;;;5065663;27;83843;-43
2023/04/29 00:22:48;;;;;;;4.03;2.57;;;;;;;;;;5066933;27;81966;-43
2023/04/29 00:25:16;;;;;;;2.20;1.80;;;;;;;;;;5066152;27;83701;-43
2023/04/29 00:27:44;;;;;;;3.37;2.47;;;;;;;;;;5065752;27;84138;-43
2023/04/29 00:30:13;;;;;;;4.40;2.30;;;;;;;;;;5066071;27;82796;-42
2023/04/29 00:32:42;;;;;;;4.17;2.77;;;;;;;;;;5066204;27;81935;-43
2023/04/29 00:35:11;;;;;;;4.27;2.30;;;;;;;;;;5066091;27;82779;-43
2023/04/29 00:37:40;;;;;;;3.93;2.27;;;;;;;;;;5065501;27;84070;-43
2023/04/29 00:40:09;;;;;;;3.47;2.30;;;;;;;;;;5065846;27;83163;-43
2023/04/29 00:42:37;;;;;;;2.87;2.27;;;;;;;;;;5066211;27;81947;-43
2023/04/29 00:45:06;;;;;;;2.43;2.23;;;;;;;;;;5065277;27;82027;-43
2023/04/29 00:47:35;;;;;;;3.23;2.40;;;;;;;;;;5065699;27;83190;-43
2023/04/29 00:50:03;;;;;;;3.03;2.03;;;;;;;;;;5065624;27;83924;-43
2023/04/29 00:52:32;;;;;;;4.23;2.50;;;;;;;;;;5065526;27;82597;-43
2023/04/29 00:55:01;;;;;;;3.50;1.93;;;;;;;;;;5066093;27;82897;-43
2023/04/29 00:57:30;;;;;;;2.77;2.00;;;;;;;;;;5065624;27;83766;-42
2023/04/29 00:59:58;;;;;;;5.03;2.70;;;;;;;;;;5066016;27;83647;-43
2023/04/29 01:02:27;;;;;;;3.07;2.73;;;;;;;;;;5065222;27;83020;-43
2023/04/29 01:04:55;;;;;;;4.17;3.33;;;;;;;;;;5065869;27;83859;-43
2023/04/29 01:07:24;;;;;;;3.07;2.57;;;;;;;;;;5064440;27;81944;-43
2023/04/29 01:09:54;;;;;;;3.30;1.90;;;;;;;;;;5065609;27;82764;-43
2023/04/29 01:12:27;;;;;;;2.83;2.10;;;;;;;;;;5065372;27;81936;-43
2023/04/29 01:14:55;;;;;;;3.67;2.50;;;;;;;;;;5065119;27;83667;-43
2023/04/29 01:17:25;;;;;;;2.60;2.30;;;;;;;;;;5063774;27;82828;-43
2023/04/29 01:19:55;;;;;;;5.37;2.47;;;;;;;;;;5064531;27;83833;-43
2023/04/29 01:22:24;;;;;;;2.13;1.80;;;;;;;;;;5063979;27;82087;-43
2023/04/29 01:24:53;;;;;;;4.03;2.20;;;;;;;;;;5065054;27;82986;-43
2023/04/29 01:27:24;;;;;;;2.30;2.10;;;;;;;;;;5063798;27;84093;-43
2023/04/29 01:29:54;;;;;;;2.47;2.03;;;;;;;;;;5065031;27;83901;-43
2023/04/29 01:32:24;;;;;;;2.50;2.20;;;;;;;;;;5065592;27;81782;-43
2023/04/29 01:35:01;;;;;;;5.47;2.30;;;;;;;;;;5065386;27;82947;-43
2023/04/29 01:37:38;;;;;;;2.83;2.23;;;;;;;;;;5065009;27;82860;-43
2023/04/29 01:40:10;;;;;;;3.63;2.50;;;;;;;;;;5065010;27;83839;-43
2023/04/29 01:42:40;;;;;;;3.90;2.50;;;;;;;;;;5065716;27;81867;-43
2023/04/29 01:45:09;;;;;;;4.30;2.50;;;;;;;;;;5065237;27;82924;-43
2023/04/29 01:47:37;;;;;;;3.33;2.10;;;;;;;;;;5064754;27;84045;-43
2023/04/29 01:50:06;;;;;;;1.73;1.63;;;;;;;;;;5064467;27;82681;-43
2023/04/29 01:52:35;;;;;;;1.60;1.50;;;;;;;;;;5064368;27;83459;-43
2023/04/29 01:55:03;;;;;;;2.60;2.30;;;;;;;;;;5065147;27;83852;-43
2023/04/29 01:57:33;;;;;;;4.83;2.53;;;;;;;;;;5064920;27;84158;-43
2023/04/29 02:00:03;;;;;;;3.17;2.33;;;;;;;;;;5065031;27;82982;-43
2023/04/29 02:02:31;;;;;;;2.10;1.87;;;;;;;;;;5064055;27;82553;-43
2023/04/29 02:05:00;;;;;;;2.87;2.47;;;;;;;;;;5063931;27;83718;-43
2023/04/29 02:07:28;;;;;;;2.73;1.70;;;;;;;;;;5063943;27;81936;-43
2023/04/29 02:09:57;;;;;;;5.93;2.40;;;;;;;;;;5064192;27;84009;-43
2023/04/29 02:12:25;;;;;;;2.07;1.63;;;;;;;;;;5064268;27;81916;-43
2023/04/29 02:14:55;;;;;;;3.70;1.90;;;;;;;;;;5063655;27;82532;-43
2023/04/29 02:17:23;;;;;;;1.93;1.80;;;;;;;;;;5063735;27;85102;-43
2023/04/29 02:19:53;;;;;;;3.20;1.90;;;;;;;;;;5063247;27;83739;-43
2023/04/29 02:22:22;;;;;;;1.80;1.70;;;;;;;;;;5065183;27;81735;-43
2023/04/29 02:24:50;;;;;;;3.53;2.27;;;;;;;;;;5064511;27;84133;-43
2023/04/29 02:27:19;;;;;;;3.23;2.27;;;;;;;;;;5060518;27;83874;-43
2023/04/29 02:29:47;;;;;;;2.80;2.10;;;;;;;;;;5064142;27;83929;-43
2023/04/29 02:32:18;;;;;;;4.00;2.47;;;;;;;;;;5064115;27;81940;-43
2023/04/29 02:34:48;;;;;;;1.30;1.20;;;;;;;;;;5064147;27;82546;-43
2023/04/29 02:37:16;;;;;;;2.43;2.10;;;;;;;;;;5063725;27;84373;-43
2023/04/29 02:39:44;;;;;;;2.87;1.97;;;;;;;;;;5063563;27;83795;-45
2023/04/29 02:42:13;;;;;;;3.27;1.70;;;;;;;;;;5064192;27;82708;-43
2023/04/29 02:44:41;;;;;;;2.07;1.80;;;;;;;;;;5064372;27;83032;-43
2023/04/29 02:47:09;;;;;;;3.40;2.47;;;;;;;;;;5064526;27;82900;-43
2023/04/29 02:49:39;;;;;;;2.73;1.90;;;;;;;;;;5064070;27;84003;-43
2023/04/29 02:52:07;;;;;;;1.50;1.40;;;;;;;;;;5064734;27;81862;-43
2023/04/29 02:54:36;;;;;;;2.23;1.73;;;;;;;;;;5063453;27;83685;-43
2023/04/29 02:57:05;;;;;;;1.93;1.70;;;;;;;;;;5063529;27;84167;-43
2023/04/29 02:59:33;;;;;;;2.27;1.77;;;;;;;;;;5064152;27;83500;-43
2023/04/29 03:02:01;;;;;;;1.70;1.60;;;;;;;;;;5066346;27;81913;-43
2023/04/29 03:04:30;;;;;;;2.20;1.97;;;;;;;;;;5067010;27;83860;-43
2023/04/29 03:07:00;;;;;;;1.50;1.40;;;;;;;;;;5063468;27;83887;-43
2023/04/29 03:09:28;;;;;;;1.90;1.67;;;;;;;;;;5066354;27;84479;-43
2023/04/29 03:11:56;;;;;;;2.27;1.40;;;;;;;;;;5067180;27;81958;-43
2023/04/29 03:14:25;;;;;;;2.07;1.50;;;;;;;;;;5067412;27;84725;-42
2023/04/29 03:16:55;;;;;;;1.90;1.73;;;;;;;;;;5066714;27;82118;-43
2023/04/29 03:19:23;;;;;;;2.40;1.73;;;;;;;;;;5066648;27;82759;-43
2023/04/29 03:21:51;;;;;;;2.63;2.00;;;;;;;;;;5056624;27;82030;-43
2023/04/29 03:24:22;;;;;;;1.10;1.00;;;;;;;;;;5067037;27;83773;-43
2023/04/29 03:26:50;;;;;;;1.50;1.40;;;;;;;;;;5066091;27;83442;-43
2023/04/29 03:29:19;;;;;;;2.27;1.70;;;;;;;;;;5066891;27;84033;-43
2023/04/29 03:31:47;;;;;;;2.23;1.80;;;;;;;;;;5066664;27;82757;-43
2023/04/29 03:34:15;;;;;;;2.13;1.40;;;;;;;;;;5067047;27;84152;-43
2023/04/29 03:36:44;;;;;;;2.03;1.50;;;;;;;;;;5066441;27;82773;-43
2023/04/29 03:39:12;;;;;;;1.30;1.20;;;;;;;;;;5067545;27;83906;-43
2023/04/29 03:41:42;;;;;;;1.30;1.17;;;;;;;;;;5067236;27;82007;-43
2023/04/29 03:44:10;;;;;;;2.67;1.77;;;;;;;;;;5067531;27;84098;-43
2023/04/29 03:46:38;;;;;;;3.90;1.70;;;;;;;;;;5066164;27;82991;-43
2023/04/29 03:49:07;;;;;;;3.53;1.70;;;;;;;;;;5063732;27;83879;-43
2023/04/29 03:51:35;;;;;;;2.07;1.50;;;;;;;;;;5066627;27;81990;-43
2023/04/29 03:54:03;;;;;;;3.33;2.03;;;;;;;;;;5067204;27;81975;-43
2023/04/29 03:56:32;;;;;;;1.70;1.10;;;;;;;;;;5065911;27;83632;-43
2023/04/29 03:59:01;;;;;;;2.93;1.10;;;;;;;;;;5066225;27;84769;-43
2023/04/29 04:01:30;;;;;;;3.47;1.37;;;;;;;;;;5066129;27;83815;-43
2023/04/29 04:03:58;;;;;;;2.00;1.17;;;;;;;;;;5066348;27;82812;-43
2023/04/29 04:06:27;;;;;;;1.20;1.10;;;;;;;;;;5065514;27;84066;-43
2023/04/29 04:08:55;;;;;;;1.40;1.30;;;;;;;;;;5066195;27;83077;-43
2023/04/29 04:11:23;;;;;;;1.70;1.60;;;;;;;;;;5065687;27;83045;-43
2023/04/29 04:13:51;;;;;;;1.43;1.33;;;;;;;;;;5067590;27;83868;-43
2023/04/29 04:16:21;;;;;;;1.23;1.10;;;;;;;;;;5066562;27;83264;-43
2023/04/29 04:18:50;;;;;;;1.57;1.47;;;;;;;;;;5065338;27;83581;-43
2023/04/29 04:21:18;;;;;;;1.97;1.33;;;;;;;;;;5065834;27;82828;-43
2023/04/29 04:23:46;;;;;;;2.03;1.37;;;;;;;;;;5065915;27;83946;-43
2023/04/29 04:26:14;;;;;;;1.30;1.20;;;;;;;;;;5065343;27;83306;-43
2023/04/29 04:28:43;;;;;;;2.10;1.50;;;;;;;;;;5065436;27;82923;-43
2023/04/29 04:31:12;;;;;;;1.50;1.40;;;;;;;;;;5065293;27;82140;-42
2023/04/29 04:33:41;;;;;;;1.57;1.20;;;;;;;;;;5066303;27;83755;-43
2023/04/29 04:36:10;;;;;;;1.57;1.47;;;;;;;;;;5064345;27;83887;-43
2023/04/29 04:38:38;;;;;;;1.80;1.70;;;;;;;;;;5066057;27;83931;-43
2023/04/29 04:41:07;;;;;;;1.47;1.37;;;;;;;;;;5065638;27;82109;-43
2023/04/29 04:43:35;;;;;;;1.30;1.20;;;;;;;;;;5065338;27;83690;-43
2023/04/29 04:46:10;;;;;;;1.63;1.20;;;;;;;;;;5065061;27;84768;-43
2023/04/29 04:48:38;;;;;;;1.77;1.40;;;;;;;;;;5062308;27;82248;-43
2023/04/29 04:51:11;;;;;;;2.23;1.40;;;;;;;;;;5065408;27;82093;-43
2023/04/29 04:53:39;;;;;;;1.20;1.10;;;;;;;;;;5064304;27;84002;-43
2023/04/29 04:56:08;;;;;;;1.57;1.47;;;;;;;;;;5065480;27;84185;-43
2023/04/29 04:58:36;;;;;;;2.30;1.60;;;;;;;;;;5064364;27;82932;-43
2023/04/29 05:01:05;;;;;;;1.17;1.07;;;;;;;;;;5065348;27;81964;-43
2023/04/29 05:03:33;;;;;;;1.20;1.10;;;;;;;;;;5064578;27;84064;-43
2023/04/29 05:06:01;;;;;;;1.13;1.03;;;;;;;;;;5065571;27;82994;-43
2023/04/29 05:08:31;;;;;;;2.97;1.60;;;;;;;;;;5064046;27;82749;-43
2023/04/29 05:10:59;;;;;;;1.37;1.27;;;;;;;;;;5063836;27;84661;-43
2023/04/29 05:13:28;;;;;;;1.53;1.10;;;;;;;;;;5064302;27;83798;-43
2023/04/29 05:15:56;;;;;;;1.33;1.10;;;;;;;;;;5065895;27;84244;-43
2023/04/29 05:18:24;;;;;;;1.40;1.17;;;;;;;;;;5064807;27;82645;-42
2023/04/29 05:20:53;;;;;;;3.40;1.47;;;;;;;;;;5064740;27;82006;-42
2023/04/29 05:23:21;;;;;;;1.83;1.20;;;;;;;;;;5064303;27;84065;-42
2023/04/29 05:25:51;;;;;;;1.50;1.40;;;;;;;;;;5063622;27;82897;-43
2023/04/29 05:28:19;;;;;;;1.23;1.13;;;;;;;;;;5065511;27;82855;-43
2023/04/29 05:30:48;;;;;;;2.67;1.20;;;;;;;;;;5064839;27;82016;-43
2023/04/29 05:33:16;;;;;;;1.30;1.13;;;;;;;;;;5063677;27;83042;-43
2023/04/29 05:35:44;;;;;;;0.70;0.70;;;;;;;;;;5063987;27;84719;-43
2023/04/29 05:38:12;;;;;;;0.90;0.90;;;;;;;;;;5065198;27;84638;-43
2023/04/29 05:40:41;;;;;;;1.20;1.10;;;;;;;;;;5064536;27;82134;-43
2023/04/29 05:43:11;;;;;;;1.10;1.00;;;;;;;;;;5064754;27;82809;-43
2023/04/29 05:45:39;;;;;;;1.13;0.93;;;;;;;;;;5064429;27;84159;-43
2023/04/29 05:48:08;;;;;;;1.47;1.37;;;;;;;;;;5060769;27;83837;-44
2023/04/29 05:50:36;;;;;;;2.73;0.90;;;;;;;;;;5064694;27;81986;-43
2023/04/29 05:53:04;;;;;;;1.23;0.83;;;;;;;;;;5064509;27;83893;-43
2023/04/29 05:55:33;;;;;;;0.57;0.50;;;;;;;;;;5064258;27;83722;-44
2023/04/29 05:58:01;;;;;;;1.17;1.07;;;;;;;;;;5065381;27;83980;-42
2023/04/29 06:00:31;;;;;;;1.57;1.00;;;;;;;;;;5063830;27;82998;-44
2023/04/29 06:02:59;;;;;;;1.10;0.90;;;;;;;;;;5058909;27;83913;-42
2023/04/29 06:05:28;;;;;;;2.27;0.90;;;;;;;;;;5064591;27;83034;-42
2023/04/29 06:07:57;;;;;;;1.10;0.90;;;;;;;;;;5064476;27;83870;-44
2023/04/29 06:10:25;;;;;;;0.80;0.67;;;;;;;;;;5063704;27;81943;-44
2023/04/29 06:12:54;;;;;;;1.50;1.30;;;;;;;;;;5063651;27;82522;-41
2023/04/29 06:15:22;;;;;;;3.13;1.10;;;;;;;;;;5064417;27;82087;-44
2023/04/29 06:17:52;;;;;;;2.87;2.07;;;;;;;;;;5064011;27;82948;-44
2023/04/29 06:20:20;;;;;;;3.67;2.73;;;;;;;;;;5063703;27;83323;-40
2023/04/29 06:22:49;;;;;;;10.67;4.40;;;;;;;;;;5062520;27;82898;-43
2023/04/29 06:25:17;;;;;;;7.50;3.53;;;;;;;;;;5061781;27;85141;-44
2023/04/29 06:27:45;;;;;;;10.27;3.63;;;;;;;;;;5064073;27;83732;-44
2023/04/29 06:30:14;;;;;;;6.50;3.50;;;;;;;;;;5063339;27;81906;-44
2023/04/29 06:32:42;;;;;;;7.37;3.50;;;;;;;;;;5063794;27;82841;-44
2023/04/29 06:35:12;;;;;;;6.70;3.70;;;;;;;;;;5065525;27;84139;-44
2023/04/29 06:37:40;;;;;;;7.33;3.70;;;;;;;;;;5067036;27;82636;-44
2023/04/29 06:40:09;;;;;;;6.30;3.10;;;;;;;;;;5067663;27;81978;-44
2023/04/29 06:42:38;;;;;;;7.47;3.10;;;;;;;;;;5067168;27;82835;-44
2023/04/29 06:45:07;;;;;;;6.87;3.50;;;;;;;;;;5067184;27;83156;-44
2023/04/29 06:47:35;;;;;;;5.83;2.53;;;;;;;;;;5067166;27;83958;-42
2023/04/29 06:50:04;;;;;;;3.70;2.50;;;;;;;;;;5066587;27;83454;-42
2023/04/29 06:52:33;;;;;;;9.90;3.40;;;;;;;;;;5067295;27;81991;-42
2023/04/29 06:55:02;;;;;;;12.17;2.70;;;;;;;;;;5067569;27;82097;-42
2023/04/29 06:57:30;;;;;;;4.40;1.87;;;;;;;;;;5067558;27;83954;-42
2023/04/29 06:59:59;;;;;;;2.87;1.87;;;;;;;;;;5067336;27;82037;-42
2023/04/29 07:02:27;;;;;;;2.53;2.20;;;;;;;;;;5065905;27;82810;-42
2023/04/29 07:04:55;;;;;;;2.07;1.77;;;;;;;;;;5067929;27;83963;-42
2023/04/29 07:07:24;;;;;;;8.17;2.43;;;;;;;;;;5067104;27;83860;-42
2023/04/29 07:09:54;;;;;;;6.20;2.27;;;;;;;;;;5067024;27;81970;-43
2023/04/29 07:12:23;;;;;;;5.10;1.60;;;;;;;;;;5067127;27;83906;-42
2023/04/29 07:14:51;;;;;;;4.10;1.77;;;;;;;;;;5066307;27;84437;-42
2023/04/29 07:17:19;;;;;;;3.73;1.60;;;;;;;;;;5066780;27;83653;-42
2023/04/29 07:19:48;;;;;;;2.60;1.67;;;;;;;;;;5067399;27;81833;-42
2023/04/29 07:22:16;;;;;;;2.13;1.40;;;;;;;;;;5066777;27;81981;-42
2023/04/29 07:24:44;;;;;;;1.40;0.97;;;;;;;;;;5065882;27;82985;-42
2023/04/29 07:27:14;;;;;;;1.93;1.70;;;;;;;;;;5075361;27;84917;-41
2023/04/29 07:29:42;;;;;;;1.40;1.30;;;;;;;;;;5075843;27;82074;-42
2023/04/29 07:32:11;;;;;;;1.57;1.10;;;;;;;;;;5067331;27;83332;-42
2023/04/29 07:34:39;;;;;;;4.73;1.73;;;;;;;;;;5062821;27;83370;-42
2023/04/29 07:37:07;;;;;;;0.90;0.70;;;;;;;;;;5065289;27;83791;-42
2023/04/29 07:39:36;;;;;;;1.50;1.00;;;;;;;;;;5066093;27;83244;-42
2023/04/29 07:42:04;;;;;;;5.50;1.23;;;;;;;;;;5066130;27;83633;-41
2023/04/29 07:44:34;;;;;;;2.43;1.07;;;;;;;;;;5063318;27;82945;-42
2023/04/29 07:47:02;;;;;;;0.73;0.73;;;;;;;;;;5065723;27;82955;-42
2023/04/29 07:49:30;;;;;;;1.10;1.00;;;;;;;;;;5066723;27;81799;-41
2023/04/29 07:51:59;;;;;;;1.77;1.30;;;;;;;;;;5065415;27;82970;-42
2023/04/29 07:54:27;;;;;;;2.47;0.80;;;;;;;;;;5067070;27;83971;-42
2023/04/29 07:56:55;;;;;;;2.60;1.20;;;;;;;;;;5067063;27;83743;-42
2023/04/29 07:59:23;;;;;;;1.67;1.13;;;;;;;;;;5066276;27;82035;-42
2023/04/29 08:01:53;;;;;;;2.43;1.33;;;;;;;;;;5065720;27;82955;-42
2023/04/29 08:04:21;;;;;;;1.37;1.20;;;;;;;;;;5065549;27;85102;-42
2023/04/29 08:06:50;;;;;;;4.30;1.07;;;;;;;;;;5066264;27;84798;-42
2023/04/29 08:09:19;;;;;;;1.03;0.73;;;;;;;;;;5065559;27;81917;-41
2023/04/29 08:11:47;;;;;;;1.93;0.83;;;;;;;;;;5065144;27;83510;-42
2023/04/29 08:14:15;;;;;;;0.90;0.63;;;;;;;;;;5066037;27;82819;-42
2023/04/29 08:16:44;;;;;;;1.97;0.87;;;;;;;;;;5065557;27;82505;-41
2023/04/29 08:19:13;;;;;;;1.37;0.77;;;;;;;;;;5066241;27;81914;-42
2023/04/29 08:21:42;;;;;;;1.03;0.93;;;;;;;;;;5067007;27;83971;-42
2023/04/29 08:24:10;;;;;;;0.70;0.70;;;;;;;;;;5066207;27;81975;-42
2023/04/29 08:26:40;;;;;;;0.80;0.80;;;;;;;;;;5066589;27;83879;-42
2023/04/29 08:29:08;;;;;;;1.23;0.73;;;;;;;;;;5065877;27;82923;-42
2023/04/29 08:31:37;;;;;;;5.87;0.90;;;;;;;;;;5066257;27;83575;-42
2023/04/29 08:34:05;;;;;;;6.63;1.03;;;;;;;;;;5065994;27;84196;-42
2023/04/29 08:36:37;;;;;;;2.73;0.80;;;;;;;;;;5066302;27;82946;-42
2023/04/29 08:39:05;;;;;;;0.50;0.50;;;;;;;;;;5066564;27;81974;-42
2023/04/29 08:41:34;;;;;;;0.77;0.77;;;;;;;;;;5066771;27;82701;-41
2023/04/29 08:44:02;;;;;;;4.47;0.90;;;;;;;;;;5065730;27;84257;-41
2023/04/29 08:46:30;;;;;;;0.53;0.53;;;;;;;;;;5066535;27;82944;-41
2023/04/29 08:48:58;;;;;;;1.80;1.17;;;;;;;;;;5065919;27;81934;-41
2023/04/29 08:51:27;;;;;;;2.90;0.93;;;;;;;;;;5066138;27;82882;-41
2023/04/29 08:53:57;;;;;;;0.67;0.50;;;;;;;;;;5065025;27;84226;-41
2023/04/29 08:56:27;;;;;;;2.90;0.83;;;;;;;;;;5065563;27;83808;-41
2023/04/29 08:58:57;;;;;;;2.93;0.80;;;;;;;;;;5063536;27;82218;-41
2023/04/29 09:01:26;;;;;;;2.17;0.90;;;;;;;;;;5064043;27;82977;-41
2023/04/29 09:03:55;;;;;;;1.37;1.10;;;;;;;;;;5065679;27;82003;-41
2023/04/29 09:06:24;;;;;;;0.63;0.60;;;;;;;;;;5065741;27;83902;-41
2023/04/29 09:08:52;;;;;;;1.63;1.07;;;;;;;;;;5065806;27;81974;-41
2023/04/29 09:11:22;;;;;;;0.80;0.80;;;;;;;;;;5066243;27;84024;-41
2023/04/29 09:13:51;;;;;;;1.33;0.83;;;;;;;;;;5065762;27;84005;-41
2023/04/29 09:16:19;;;;;;;1.77;0.70;;;;;;;;;;5065758;27;83956;-41
2023/04/29 09:18:48;;;;;;;0.60;0.60;;;;;;;;;;5064636;27;82896;-40
2023/04/29 09:21:17;;;;;;;2.17;1.03;;;;;;;;;;5065084;27;83311;-41
2023/04/29 09:23:49;;;;;;;1.30;0.70;;;;;;;;;;5065601;27;84050;-42
2023/04/29 09:26:18;;;;;;;2.93;0.80;;;;;;;;;;5065317;27;82846;-41
2023/04/29 09:28:48;;;;;;;1.70;1.07;;;;;;;;;;5065851;27;81813;-41
2023/04/29 09:31:16;;;;;;;0.70;0.70;;;;;;;;;;5064701;27;82958;-41
2023/04/29 09:33:51;;;;;;;1.23;0.80;;;;;;;;;;5053641;27;83084;-41
2023/04/29 09:36:38;;;;;;;0.87;0.87;;;;;;;;;;5063312;27;81865;-41
2023/04/29 09:39:10;;;;;;;0.80;0.80;;;;;;;;;;5064188;27;81885;-41
2023/04/29 09:41:43;;;;;;;0.60;0.60;;;;;;;;;;5064751;27;82936;-54
2023/04/29 09:44:12;;;;;;;0.60;0.50;;;;;;;;;;5063605;27;85380;-54
2023/04/29 09:46:41;;;;;;;0.90;0.73;;;;;;;;;;5064192;27;83810;-53
2023/04/29 09:49:23;;;;;;;1.03;0.93;;;;;;;;;;5064512;27;81952;-54
2023/04/29 09:51:55;;;;;;;1.33;0.90;;;;;;;;;;5065099;27;82758;-54
2023/04/29 09:54:24;;;;;;;0.70;0.60;;;;;;;;;;5064256;27;84069;-54
2023/04/29 09:56:53;;;;;;;1.10;0.50;;;;;;;;;;5064185;27;83043;-54
2023/04/29 09:59:23;;;;;;;1.23;0.90;;;;;;;;;;5063268;27;81927;-52
2023/04/29 10:01:51;;;;;;;1.03;0.60;;;;;;;;;;5064733;27;82757;-54
2023/04/29 10:04:20;;;;;;;0.70;0.60;;;;;;;;;;5064060;27;83022;-55
2023/04/29 10:06:49;;;;;;;1.27;0.90;;;;;;;;;;5063082;27;83895;-54
2023/04/29 10:09:18;;;;;;;1.60;0.80;;;;;;;;;;5063251;27;82921;-53
2023/04/29 10:11:46;;;;;;;0.70;0.70;;;;;;;;;;5064307;27;83006;-53
2023/04/29 10:14:16;;;;;;;0.80;0.80;;;;;;;;;;5062421;27;84015;-55
2023/04/29 10:16:49;;;;;;;2.00;0.60;;;;;;;;;;5064476;27;83809;-53
2023/04/29 10:19:25;;;;;;;1.50;0.80;;;;;;;;;;5063742;27;82084;-53
2023/04/29 10:21:55;;;;;;;1.63;0.70;;;;;;;;;;5065060;27;83313;-53
2023/04/29 10:24:24;;;;;;;1.00;0.80;;;;;;;;;;5063751;27;82966;-53
2023/04/29 10:26:52;;;;;;;0.73;0.73;;;;;;;;;;5064843;27;83935;-53
2023/04/29 10:29:21;;;;;;;1.47;0.60;;;;;;;;;;5064269;27;82335;-53
2023/04/29 10:31:50;;;;;;;0.50;0.50;;;;;;;;;;5064543;27;83921;-53
2023/04/29 10:34:19;;;;;;;0.83;0.73;;;;;;;;;;5062727;27;85209;-53
2023/04/29 10:36:47;;;;;;;2.33;1.27;;;;;;;;;;5063642;27;83814;-53
2023/04/29 10:39:18;;;;;;;1.60;0.73;;;;;;;;;;5063725;27;82070;-53
2023/04/29 10:41:46;;;;;;;0.60;0.60;;;;;;;;;;5063487;27;83566;-53
2023/04/29 10:44:15;;;;;;;1.43;0.87;;;;;;;;;;5064368;27;82893;-53
2023/04/29 10:46:43;;;;;;;1.20;0.90;;;;;;;;;;5064567;27;82834;-54
2023/04/29 10:49:13;;;;;;;0.83;0.60;;;;;;;;;;5064022;27;82046;-53
2023/04/29 10:51:42;;;;;;;5.43;0.93;;;;;;;;;;5064847;27;82667;-53
2023/04/29 10:54:10;;;;;;;1.00;0.90;;;;;;;;;;5064068;27;83149;-53
2023/04/29 10:56:39;;;;;;;1.53;1.00;;;;;;;;;;5064094;27;83923;-53
2023/04/29 10:59:10;;;;;;;1.13;0.83;;;;;;;;;;5063316;27;82889;-53
2023/04/29 11:01:43;;;;;;;0.90;0.70;;;;;;;;;;5063758;27;82828;-53
2023/04/29 11:04:12;;;;;;;3.23;0.83;;;;;;;;;;5063407;27;83005;-53
2023/04/29 11:06:42;;;;;;;1.23;1.03;;;;;;;;;;5062411;27;84148;-53
2023/04/29 11:09:11;;;;;;;0.90;0.90;;;;;;;;;;5063974;27;81982;-52
2023/04/29 11:11:50;;;;;;;2.47;1.30;;;;;;;;;;5063486;27;82915;-52
2023/04/29 11:14:22;;;;;;;0.73;0.73;;;;;;;;;;5064127;27;84330;-53
2023/04/29 11:16:52;;;;;;;2.17;1.23;;;;;;;;;;5063767;27;83798;-54
2023/04/29 11:19:23;;;;;;;1.20;0.83;;;;;;;;;;5062527;27;81959;-53
2023/04/29 11:21:52;;;;;;;1.37;1.07;;;;;;;;;;5064166;27;83858;-54
2023/04/29 11:24:21;;;;;;;1.50;0.97;;;;;;;;;;5067057;27;84904;-53
2023/04/29 11:26:49;;;;;;;1.70;1.23;;;;;;;;;;5067242;27;84703;-54
2023/04/29 11:29:18;;;;;;;2.37;1.27;;;;;;;;;;5066913;27;82001;-53
2023/04/29 11:31:46;;;;;;;0.90;0.80;;;;;;;;;;5066743;27;82822;-52
2023/04/29 11:34:15;;;;;;;1.60;0.93;;;;;;;;;;5066940;27;83787;-52
2023/04/29 11:36:45;;;;;;;1.30;1.10;;;;;;;;;;5065565;27;84022;-52
2023/04/29 11:39:14;;;;;;;2.47;0.90;;;;;;;;;;5066399;27;81901;-51
2023/04/29 11:41:43;;;;;;;1.10;1.00;;;;;;;;;;5065936;27;83802;-52
2023/04/29 11:44:12;;;;;;;0.73;0.73;;;;;;;;;;5064439;27;83006;-52
2023/04/29 11:46:40;;;;;;;1.53;0.90;;;;;;;;;;5066725;27;83952;-53
2023/04/29 11:49:09;;;;;;;3.60;1.30;;;;;;;;;;5064782;27;83031;-52
2023/04/29 11:51:37;;;;;;;1.70;1.50;;;;;;;;;;5063555;27;83449;-52
2023/04/29 11:54:06;;;;;;;4.57;1.17;;;;;;;;;;5065677;27;83890;-53
2023/04/29 11:56:36;;;;;;;3.63;1.40;;;;;;;;;;5065150;27;82894;-53
2023/04/29 11:59:06;;;;;;;1.07;0.90;;;;;;;;;;5063721;27;81851;-49
2023/04/29 12:01:36;;;;;;;1.93;1.37;;;;;;;;;;5065198;27;82069;-51
2023/04/29 12:04:05;;;;;;;1.20;1.10;;;;;;;;;;5062704;27;84119;-51
2023/04/29 12:06:34;;;;;;;1.37;1.27;;;;;;;;;;5065289;27;81928;-50
2023/04/29 12:09:03;;;;;;;1.27;0.90;;;;;;;;;;5065320;27;81956;-50
2023/04/29 12:11:33;;;;;;;1.40;1.30;;;;;;;;;;5065283;27;83840;-50
2023/04/29 12:14:04;;;;;;;3.03;0.80;;;;;;;;;;5064530;27;85178;-50
2023/04/29 12:16:33;;;;;;;4.43;1.23;;;;;;;;;;5064786;27;84964;-50
2023/04/29 12:19:01;;;;;;;2.03;1.03;;;;;;;;;;5065088;27;81965;-51
2023/04/29 12:21:30;;;;;;;1.90;1.47;;;;;;;;;;5065006;27;84018;-52
2023/04/29 12:24:00;;;;;;;4.33;2.00;;;;;;;;;;5062458;27;82092;-51
2023/04/29 12:26:29;;;;;;;3.83;0.97;;;;;;;;;;5060071;27;83275;-50
2023/04/29 12:28:59;;;;;;;4.17;1.37;;;;;;;;;;5060396;27;82846;-50
2023/04/29 12:31:35;;;;;;;1.67;1.20;;;;;;;;;;5064319;27;83831;-50
2023/04/29 12:34:04;;;;;;;2.73;1.20;;;;;;;;;;5063650;27;84040;-50
2023/04/29 12:36:37;;;;;;;1.80;1.00;;;;;;;;;;5065095;27;83920;-50
2023/04/29 12:39:09;;;;;;;2.70;1.40;;;;;;;;;;5065617;27;82793;-50
2023/04/29 12:41:37;;;;;;;1.23;1.10;;;;;;;;;;5065032;27;84008;-50
2023/04/29 12:44:09;;;;;;;1.00;0.90;;;;;;;;;;5068220;27;84221;-50
2023/04/29 12:46:38;;;;;;;1.27;1.00;;;;;;;;;;5064026;27;82739;-50
2023/04/29 12:49:06;;;;;;;2.27;1.00;;;;;;;;;;5065831;27;81982;-50
2023/04/29 12:51:35;;;;;;;1.07;0.97;;;;;;;;;;5063348;27;82719;-51
2023/04/29 12:54:05;;;;;;;2.87;1.10;;;;;;;;;;5065409;27;84067;-49
2023/04/29 12:56:33;;;;;;;1.10;1.00;;;;;;;;;;5065552;27;82888;-49
2023/04/29 12:59:10;;;;;;;3.00;1.50;;;;;;;;;;5065395;27;82021;-50
2023/04/29 13:01:39;;;;;;;1.40;1.30;;;;;;;;;;5065668;27;82828;-50
2023/04/29 13:04:07;;;;;;;1.27;1.17;;;;;;;;;;5065819;27;83966;-50
2023/04/29 13:06:39;;;;;;;2.27;1.40;;;;;;;;;;5063987;27;84489;-50
2023/04/29 13:09:10;;;;;;;1.50;1.40;;;;;;;;;;5064314;27;82015;-49
2023/04/29 13:11:45;;;;;;;1.20;1.10;;;;;;;;;;5045888;27;82982;-51
2023/04/29 13:14:15;;;;;;;2.47;1.50;;;;;;;;;;5065072;27;84140;-49
2023/04/29 13:16:44;;;;;;;1.47;1.37;;;;;;;;;;5065046;27;82770;-51
2023/04/29 13:19:12;;;;;;;1.20;1.10;;;;;;;;;;5064813;27;82648;-49
2023/04/29 13:22:00;;;;;;;3.40;1.00;;;;;;;;;;5064004;27;82691;-49
2023/04/29 13:24:29;;;;;;;1.57;1.10;;;;;;;;;;5065457;27;84147;-50
2023/04/29 13:26:57;;;;;;;1.00;0.90;;;;;;;;;;5064915;27;83820;-50
2023/04/29 13:29:27;;;;;;;3.03;1.40;;;;;;;;;;5065033;27;82677;-52
2023/04/29 13:31:56;;;;;;;6.07;1.50;;;;;;;;;;5064591;27;82669;-49
2023/04/29 13:34:24;;;;;;;1.73;1.33;;;;;;;;;;5064512;27;83123;-49
2023/04/29 13:36:52;;;;;;;1.63;1.10;;;;;;;;;;5064419;27;81878;-50
2023/04/29 13:39:22;;;;;;;1.30;1.17;;;;;;;;;;5065964;27;82394;-51
2023/04/29 13:41:50;;;;;;;3.13;1.30;;;;;;;;;;5064834;27;82054;-51
2023/04/29 13:44:19;;;;;;;3.33;1.40;;;;;;;;;;5062906;27;84109;-49
2023/04/29 13:47:02;;;;;;;1.93;1.13;;;;;;;;;;5065470;27;84325;-50
2023/04/29 13:49:32;;;;;;;1.73;1.43;;;;;;;;;;5064666;27;81754;-51
2023/04/29 13:52:04;;;;;;;0.80;0.80;;;;;;;;;;5065060;27;82399;-50
2023/04/29 13:54:52;;;;;;;1.60;1.40;;;;;;;;;;5064758;27;83645;-52
2023/04/29 13:57:26;;;;;;;1.20;1.10;;;;;;;;;;5065591;27;83262;-50
2023/04/29 14:00:15;;;;;;;1.70;1.33;;;;;;;;;;5065273;27;83164;-50
2023/04/29 14:03:06;;;;;;;3.07;1.50;;;;;;;;;;5064872;27;85321;-50
2023/04/29 14:05:34;;;;;;;3.13;1.50;;;;;;;;;;5064579;27;84300;-52
2023/04/29 14:08:03;;;;;;;3.23;1.10;;;;;;;;;;5063804;27;83674;-52
2023/04/29 14:10:31;;;;;;;6.73;1.33;;;;;;;;;;5063388;27;82058;-50
2023/04/29 14:13:00;;;;;;;1.40;1.03;;;;;;;;;;5064577;27;81757;-51
2023/04/29 14:15:28;;;;;;;4.53;1.07;;;;;;;;;;5064455;27;83284;-50
2023/04/29 14:17:56;;;;;;;2.80;1.30;;;;;;;;;;5064459;27;81977;-50
2023/04/29 14:20:27;;;;;;;2.37;0.97;;;;;;;;;;5063764;27;82781;-50
2023/04/29 14:22:55;;;;;;;3.33;1.23;;;;;;;;;;5063824;27;83970;-50
2023/04/29 14:25:23;;;;;;;2.53;1.00;;;;;;;;;;5063645;27;84213;-52
2023/04/29 14:27:54;;;;;;;2.00;1.47;;;;;;;;;;5064674;27;83901;-52
2023/04/29 14:30:22;;;;;;;1.93;1.17;;;;;;;;;;5063512;27;81887;-49
2023/04/29 14:32:51;;;;;;;6.50;1.37;;;;;;;;;;5064283;27;82818;-52
2023/04/29 14:35:19;;;;;;;3.10;1.57;;;;;;;;;;5064403;27;84147;-51
2023/04/29 14:37:49;;;;;;;1.87;1.30;;;;;;;;;;5064985;27;82780;-52
2023/04/29 14:40:17;;;;;;;1.17;1.07;;;;;;;;;;5065083;27;81757;-52
2023/04/29 14:42:46;;;;;;;2.53;1.20;;;;;;;;;;5064194;27;83912;-52
2023/04/29 14:45:14;;;;;;;3.73;1.00;;;;;;;;;;5063667;27;84044;-52
2023/04/29 14:47:42;;;;;;;0.80;0.80;;;;;;;;;;5064058;27;84914;-52
2023/04/29 14:50:11;;;;;;;1.60;1.43;;;;;;;;;;5064569;27;81960;-53
2023/04/29 14:52:39;;;;;;;4.33;2.00;;;;;;;;;;5064503;27;81986;-52
2023/04/29 14:55:09;;;;;;;2.10;1.50;;;;;;;;;;5064124;27;83305;-52